createdAt,value
2019-03-20T00:01:27.627Z,93.33
2019-03-20T00:04:01.511Z,90.60
2019-03-20T00:06:34.071Z,97.70
2019-03-20T00:09:07.859Z,98.17
2019-03-20T00:11:40.631Z,103.22
2019-03-20T00:14:13.334Z,96.63
2019-03-20T00:16:45.830Z,94.77
2019-03-20T00:19:18.589Z,92.10
2019-03-20T00:21:51.010Z,98.03
2019-03-20T00:24:23.537Z,107.72
2019-03-20T00:26:55.848Z,91.10
2019-03-20T00:29:28.436Z,89.60
2019-03-20T00:32:01.035Z,91.45
2019-03-20T00:34:33.607Z,90.28
2019-03-20T00:37:06.661Z,90.25
2019-03-20T00:39:39.116Z,94.80
2019-03-20T00:42:11.896Z,94.90
2019-03-20T00:44:44.465Z,100.85
2019-03-20T00:47:16.753Z,93.82
2019-03-20T00:49:48.931Z,97.85
2019-03-20T00:52:21.360Z,93.80
2019-03-20T00:54:54.151Z,92.40
2019-03-20T00:57:26.593Z,95.65
2019-03-20T00:59:59.556Z,94.22
2019-03-20T01:02:32.325Z,95.77
2019-03-20T01:05:12.416Z,96.28
2019-03-20T01:07:38.944Z,96.85
2019-03-20T01:10:13.509Z,93.17
2019-03-20T01:12:46.089Z,97.65
2019-03-20T01:15:18.602Z,99.80
2019-03-20T01:17:51.320Z,100.45
2019-03-20T01:20:24.722Z,94.75
2019-03-20T01:22:57.254Z,94.03
2019-03-20T01:25:29.687Z,89.45
2019-03-20T01:28:02.617Z,92.50
2019-03-20T01:30:36.420Z,88.47
2019-03-20T01:33:10.974Z,87.97
2019-03-20T01:35:43.875Z,93.07
2019-03-20T01:38:16.631Z,91.05
2019-03-20T01:40:49.160Z,94.80
2019-03-20T01:43:21.827Z,94.07
2019-03-20T01:45:54.672Z,107.30
2019-03-20T01:48:27.067Z,104.15
2019-03-20T01:51:02.217Z,104.12
2019-03-20T01:53:34.660Z,104.65
2019-03-20T01:56:07.374Z,107.90
2019-03-20T01:58:40.529Z,109.97
2019-03-20T02:01:13.188Z,107.65
2019-03-20T02:03:46.222Z,101.47
2019-03-20T02:06:19.448Z,94.85
2019-03-20T02:08:52.321Z,97.67
2019-03-20T02:11:24.836Z,100.67
2019-03-20T02:13:57.343Z,98.33
2019-03-20T02:16:29.899Z,99.42
2019-03-20T02:19:02.411Z,88.90
2019-03-20T02:21:35.219Z,92.85
2019-03-20T02:24:07.846Z,90.62
2019-03-20T02:26:40.211Z,91.92
2019-03-20T02:29:12.778Z,84.37
2019-03-20T02:31:45.823Z,93.70
2019-03-20T02:34:18.489Z,84.20
2019-03-20T02:36:51.158Z,92.22
2019-03-20T02:39:23.728Z,86.65
2019-03-20T02:41:56.051Z,91.08
2019-03-20T02:44:29.516Z,81.72
2019-03-20T02:47:01.926Z,80.97
2019-03-20T02:49:34.548Z,80.97
2019-03-20T03:04:15.048Z,78.50
2019-03-20T03:06:47.729Z,83.35
2019-03-20T03:09:20.118Z,76.95
2019-03-20T03:11:52.424Z,85.15
2019-03-20T03:14:25.288Z,81.85
2019-03-20T03:16:58.377Z,83.78
2019-03-20T03:19:49.947Z,79.58
2019-03-20T03:22:22.680Z,78.47
2019-03-20T03:24:55.374Z,81.50
2019-03-20T03:27:27.875Z,81.75
2019-03-20T03:30:00.581Z,83.78
2019-03-20T03:32:33.700Z,81.47
2019-03-20T03:35:07.814Z,77.45
2019-03-20T03:37:40.352Z,74.67
2019-03-20T03:40:15.669Z,76.15
2019-03-20T03:42:48.582Z,82.78
2019-03-20T03:45:21.229Z,75.10
2019-03-20T03:47:54.089Z,78.62
2019-03-20T03:50:26.530Z,77.50
2019-03-20T03:52:58.899Z,71.67
2019-03-20T03:55:31.538Z,75.60
2019-03-20T03:58:04.201Z,74.53
2019-03-20T04:00:36.908Z,77.03
2019-03-20T04:03:09.831Z,72.35
2019-03-20T04:05:42.689Z,65.47
2019-03-20T04:08:15.662Z,67.65
2019-03-20T04:10:48.119Z,63.87
2019-03-20T04:13:20.906Z,65.97
2019-03-20T04:15:53.253Z,61.83
2019-03-20T04:18:26.127Z,64.77
2019-03-20T04:20:58.792Z,73.50
2019-03-20T04:23:31.516Z,66.85
2019-03-20T04:26:16.583Z,63.48
2019-03-20T04:28:48.938Z,60.70
2019-03-20T04:31:21.440Z,61.05
2019-03-20T04:33:54.205Z,56.63
2019-03-20T04:36:27.117Z,56.68
2019-03-20T04:38:59.549Z,61.58
2019-03-20T04:41:32.602Z,58.35
2019-03-20T04:44:05.149Z,59.38
2019-03-20T04:46:37.897Z,61.10
2019-03-20T04:49:10.610Z,55.50
2019-03-20T04:51:43.376Z,55.08
2019-03-20T04:54:16.059Z,61.55
2019-03-20T04:56:48.292Z,57.88
2019-03-20T04:59:20.756Z,56.23
2019-03-20T05:01:53.397Z,55.78
2019-03-20T05:04:26.008Z,59.67
2019-03-20T05:06:59.307Z,54.50
2019-03-20T05:09:31.905Z,52.73
2019-03-20T05:12:04.364Z,52.98
2019-03-20T05:14:37.295Z,52.08
2019-03-20T05:17:09.568Z,51.88
2019-03-20T05:19:42.347Z,49.53
2019-03-20T05:22:14.951Z,49.83
2019-03-20T05:24:47.540Z,51.68
2019-03-20T05:27:20.059Z,49.98
2019-03-20T05:29:52.402Z,50.75
2019-03-20T05:32:25.223Z,48.20
2019-03-20T05:34:57.565Z,48.65
2019-03-20T05:37:30.169Z,47.23
2019-03-20T05:40:05.686Z,48.83
2019-03-20T05:42:38.727Z,45.95
2019-03-20T05:45:13.597Z,47.15
2019-03-20T05:47:46.399Z,45.58
2019-03-20T05:50:20.040Z,43.60
2019-03-20T05:52:52.475Z,45.78
2019-03-20T05:55:25.936Z,46.90
2019-03-20T05:57:58.568Z,46.77
2019-03-20T06:00:32.218Z,46.60
2019-03-20T06:03:08.272Z,45.60
2019-03-20T06:05:45.815Z,47.40
2019-03-20T06:08:23.072Z,43.60
2019-03-20T06:10:57.150Z,43.92
2019-03-20T06:13:30.233Z,46.02
2019-03-20T06:16:03.015Z,42.90
2019-03-20T06:18:36.167Z,43.90
2019-03-20T06:21:08.905Z,60.12
2019-03-20T06:23:42.372Z,88.22
2019-03-20T06:26:15.459Z,42.23
2019-03-20T06:28:48.444Z,43.17
2019-03-20T06:31:23.143Z,41.50
2019-03-20T06:33:56.087Z,40.38
2019-03-20T06:36:29.166Z,46.85
2019-03-20T06:39:02.139Z,43.45
2019-03-20T06:41:35.423Z,40.75
2019-03-20T06:44:08.279Z,42.35
2019-03-20T06:46:41.419Z,41.42
2019-03-20T06:49:14.922Z,38.50
2019-03-20T06:51:49.308Z,41.10
2019-03-20T06:54:23.541Z,39.83
2019-03-20T06:56:57.563Z,44.80
2019-03-20T06:59:32.773Z,40.48
2019-03-20T07:02:07.818Z,38.55
2019-03-20T07:04:42.950Z,38.78
2019-03-20T07:07:18.083Z,40.45
2019-03-20T07:09:53.232Z,39.38
2019-03-20T07:12:26.406Z,38.53
2019-03-20T07:14:59.448Z,39.45
2019-03-20T07:17:32.443Z,44.25
2019-03-20T07:20:06.731Z,45.35
2019-03-20T07:22:39.828Z,43.02
2019-03-20T07:25:13.019Z,41.58
2019-03-20T07:27:46.390Z,38.15
2019-03-20T07:30:19.199Z,38.40
2019-03-20T07:32:52.519Z,36.88
2019-03-20T07:35:25.394Z,36.68
2019-03-20T07:37:58.636Z,38.83
2019-03-20T07:40:31.646Z,36.08
2019-03-20T07:43:08.838Z,36.83
2019-03-20T07:45:38.785Z,35.48
2019-03-20T07:48:21.615Z,35.50
2019-03-20T07:50:46.328Z,36.95
2019-03-20T07:53:19.975Z,36.88
2019-03-20T07:55:53.348Z,48.45
2019-03-20T07:58:26.617Z,35.80
2019-03-20T08:01:00.372Z,34.90
2019-03-20T08:03:33.955Z,36.75
2019-03-20T08:06:07.351Z,36.70
2019-03-20T08:08:40.944Z,37.23
2019-03-20T08:11:15.928Z,36.68
2019-03-20T08:13:49.102Z,36.40
2019-03-20T08:16:22.309Z,37.42
2019-03-20T08:18:55.413Z,37.90
2019-03-20T08:21:28.558Z,36.88
2019-03-20T08:24:01.848Z,41.13
2019-03-20T08:26:34.834Z,39.00
2019-03-20T08:29:07.963Z,37.05
2019-03-20T08:31:41.256Z,39.55
2019-03-20T08:34:14.447Z,36.88
2019-03-20T08:36:48.092Z,36.95
2019-03-20T08:39:21.935Z,40.60
2019-03-20T08:41:55.295Z,40.40
2019-03-20T08:44:27.981Z,38.05
2019-03-20T08:47:01.289Z,37.30
2019-03-20T08:49:34.354Z,41.00
2019-03-20T08:52:07.304Z,38.88
2019-03-20T08:54:40.638Z,43.63
2019-03-20T08:57:13.789Z,38.15
2019-03-20T08:59:46.872Z,40.10
2019-03-20T09:02:20.424Z,40.30
2019-03-20T09:04:53.538Z,41.50
2019-03-20T09:07:27.041Z,39.15
2019-03-20T09:10:01.128Z,40.67
2019-03-20T09:12:34.636Z,40.12
2019-03-20T09:15:09.648Z,39.80
2019-03-20T09:17:43.201Z,39.65
2019-03-20T09:20:17.660Z,38.38
2019-03-20T09:22:50.781Z,43.08
2019-03-20T09:25:25.666Z,43.73
2019-03-20T09:27:57.932Z,42.73
2019-03-20T09:30:31.886Z,45.55
2019-03-20T09:33:04.372Z,41.73
2019-03-20T09:35:36.740Z,44.38
2019-03-20T09:38:09.132Z,45.73
2019-03-20T09:40:42.075Z,41.85
2019-03-20T09:43:14.461Z,40.60
2019-03-20T09:45:47.472Z,43.78
2019-03-20T09:48:19.959Z,41.28
2019-03-20T09:50:52.611Z,41.45
2019-03-20T09:53:24.931Z,45.17
2019-03-20T09:55:57.758Z,46.33
2019-03-20T09:58:30.085Z,43.25
2019-03-20T10:01:02.326Z,43.02
2019-03-20T10:03:34.924Z,46.85
2019-03-20T10:06:07.450Z,43.45
2019-03-20T10:08:39.774Z,46.75
2019-03-20T10:11:12.580Z,44.30
2019-03-20T10:13:45.102Z,46.85
2019-03-20T10:16:18.117Z,42.40
2019-03-20T10:18:50.416Z,44.42
2019-03-20T10:21:23.145Z,43.33
2019-03-20T10:23:55.786Z,47.08
2019-03-20T10:26:29.076Z,45.33
2019-03-20T10:29:01.620Z,44.05
2019-03-20T10:31:34.135Z,44.25
2019-03-20T10:34:07.460Z,41.45
2019-03-20T10:36:39.975Z,42.23
2019-03-20T10:39:25.196Z,41.00
2019-03-20T10:41:57.913Z,43.15
2019-03-20T10:44:42.583Z,43.83
2019-03-20T10:47:15.349Z,47.27
2019-03-20T10:49:48.245Z,42.98
2019-03-20T10:52:22.057Z,45.55
2019-03-20T10:54:54.372Z,44.10
2019-03-20T10:57:26.957Z,45.25
2019-03-20T10:59:59.317Z,46.92
2019-03-20T11:02:32.405Z,45.25
2019-03-20T11:05:04.919Z,42.00
2019-03-20T11:07:37.492Z,47.17
2019-03-20T11:10:12.454Z,43.75
2019-03-20T11:12:44.979Z,49.75
2019-03-20T11:15:19.076Z,46.95
2019-03-20T11:17:52.120Z,48.50
2019-03-20T11:20:26.122Z,46.58
2019-03-20T11:22:58.768Z,45.00
2019-03-20T11:25:31.752Z,47.98
2019-03-20T11:28:04.560Z,48.98
2019-03-20T11:30:37.275Z,46.60
2019-03-20T11:33:09.812Z,46.53
2019-03-20T11:35:42.629Z,47.33
2019-03-20T11:38:15.246Z,47.40
2019-03-20T11:40:47.894Z,50.55
2019-03-20T11:43:20.279Z,57.93
2019-03-20T11:45:52.446Z,62.17
2019-03-20T11:48:25.997Z,56.95
2019-03-20T11:50:58.989Z,83.45
2019-03-20T11:53:31.825Z,69.95
2019-03-20T11:56:04.749Z,58.15
2019-03-20T11:58:37.374Z,48.80
2019-03-20T12:01:10.911Z,57.23
2019-03-20T12:03:43.721Z,52.83
2019-03-20T12:06:17.761Z,211.77
2019-03-20T12:08:51.519Z,80.80
2019-03-20T12:11:23.989Z,88.30
2019-03-20T12:13:57.580Z,76.37
2019-03-20T12:16:30.073Z,77.78
2019-03-20T12:19:02.584Z,72.08
2019-03-20T12:21:35.128Z,58.65
2019-03-20T12:24:07.543Z,63.17
2019-03-20T12:26:40.262Z,69.25
2019-03-20T12:29:12.799Z,67.53
2019-03-20T12:31:45.104Z,74.22
2019-03-20T12:34:17.364Z,81.40
2019-03-20T12:36:50.032Z,110.70
2019-03-20T12:39:22.231Z,97.33
2019-03-20T12:41:54.921Z,102.42
2019-03-20T12:44:27.155Z,97.02
2019-03-20T12:46:59.785Z,100.87
2019-03-20T12:49:32.259Z,85.80
2019-03-20T12:52:04.759Z,91.17
2019-03-20T12:54:37.203Z,89.60
2019-03-20T12:57:10.038Z,72.37
2019-03-20T12:59:42.190Z,91.60
2019-03-20T13:02:15.014Z,105.97
2019-03-20T13:04:48.023Z,86.47
2019-03-20T13:07:20.821Z,83.45
2019-03-20T13:09:56.171Z,84.30
2019-03-20T13:12:27.529Z,78.40
2019-03-20T13:14:59.823Z,76.62
2019-03-20T13:17:32.296Z,69.32
2019-03-20T13:20:04.748Z,71.05
2019-03-20T13:22:37.082Z,70.75
2019-03-20T13:25:12.436Z,73.97
2019-03-20T13:27:45.051Z,72.05
2019-03-20T13:30:20.433Z,67.62
2019-03-20T13:32:54.136Z,72.87
2019-03-20T13:35:26.474Z,78.37
2019-03-20T13:37:58.968Z,73.83
2019-03-20T13:40:31.376Z,78.25
2019-03-20T13:43:04.008Z,69.92
2019-03-20T13:45:50.198Z,77.12
2019-03-20T13:48:22.921Z,63.78
2019-03-20T13:50:55.359Z,69.62
2019-03-20T13:53:27.865Z,73.02
2019-03-20T13:56:00.677Z,69.27
2019-03-20T13:58:33.023Z,72.27
2019-03-20T14:01:05.386Z,71.40
2019-03-20T14:03:37.736Z,72.40
2019-03-20T14:06:10.785Z,70.42
2019-03-20T14:08:43.267Z,71.92
2019-03-20T14:11:15.869Z,73.07
2019-03-20T14:13:48.096Z,75.50
2019-03-20T14:16:20.724Z,71.40
2019-03-20T14:18:53.418Z,82.60
2019-03-20T14:21:38.131Z,65.60
2019-03-20T14:24:10.394Z,73.90
2019-03-20T14:26:43.097Z,80.72
2019-03-20T14:29:15.557Z,82.27
2019-03-20T14:31:47.944Z,77.80
2019-03-20T14:34:20.519Z,77.82
2019-03-20T14:36:52.797Z,77.45
2019-03-20T14:39:25.058Z,76.33
2019-03-20T14:41:58.767Z,77.40
2019-03-20T14:44:31.494Z,78.07
2019-03-20T14:47:03.630Z,79.90
2019-03-20T14:49:35.887Z,73.62
2019-03-20T14:52:08.366Z,87.50
2019-03-20T14:54:41.083Z,117.53
2019-03-20T14:57:13.791Z,161.35
2019-03-20T14:59:46.540Z,80.60
2019-03-20T15:02:18.862Z,78.87
2019-03-20T15:04:51.307Z,84.07
2019-03-20T15:07:23.582Z,92.35
2019-03-20T15:09:56.427Z,86.92
2019-03-20T15:12:29.037Z,87.50
2019-03-20T15:15:01.499Z,82.17
2019-03-20T15:17:33.989Z,89.13
2019-03-20T15:20:08.219Z,80.40
2019-03-20T15:22:40.636Z,83.75
2019-03-20T15:25:14.485Z,76.65
2019-03-20T15:27:46.984Z,77.15
2019-03-20T15:30:21.775Z,82.60
2019-03-20T15:32:54.588Z,85.50
2019-03-20T15:35:27.605Z,85.47
2019-03-20T15:37:59.913Z,76.60
2019-03-20T15:40:33.547Z,85.67
2019-03-20T15:43:06.027Z,79.27
2019-03-20T15:45:38.409Z,75.30
2019-03-20T15:48:10.754Z,75.80
2019-03-20T15:50:43.100Z,78.45
2019-03-20T15:53:15.617Z,77.50
2019-03-20T15:55:48.507Z,80.35
2019-03-20T15:58:21.408Z,83.12
2019-03-20T16:00:54.108Z,76.30
2019-03-20T16:03:28.781Z,76.30
2019-03-20T16:06:01.161Z,78.47
2019-03-20T16:08:33.584Z,81.22
2019-03-20T16:11:06.874Z,74.50
2019-03-20T16:13:40.062Z,75.15
2019-03-20T16:16:12.643Z,79.87
2019-03-20T16:18:45.293Z,85.30
2019-03-20T16:21:18.227Z,85.25
2019-03-20T16:23:50.660Z,81.85
2019-03-20T16:26:25.027Z,86.97
2019-03-20T16:28:58.324Z,93.72
2019-03-20T16:31:30.961Z,92.10
2019-03-20T16:34:03.291Z,88.07
2019-03-20T16:36:35.881Z,93.20
2019-03-20T16:39:10.208Z,92.15
2019-03-20T16:41:42.914Z,86.63
2019-03-20T16:44:15.189Z,97.88
2019-03-20T16:46:47.514Z,88.80
2019-03-20T16:49:19.916Z,94.15
2019-03-20T16:51:52.667Z,87.47
2019-03-20T16:54:25.017Z,87.88
2019-03-20T16:56:57.445Z,86.00
2019-03-20T16:59:29.847Z,97.08
2019-03-20T17:02:09.557Z,91.45
2019-03-20T17:04:42.041Z,85.67
2019-03-20T17:07:14.828Z,100.07
2019-03-20T17:09:47.374Z,94.42
2019-03-20T17:12:19.929Z,87.20
2019-03-20T17:14:52.566Z,95.35
2019-03-20T17:17:25.147Z,95.83
2019-03-20T17:19:57.921Z,95.15
2019-03-20T17:22:30.307Z,91.97
2019-03-20T17:25:02.757Z,87.65
2019-03-20T17:27:35.646Z,95.12
2019-03-20T17:30:10.387Z,97.75
2019-03-20T17:32:43.031Z,95.53
2019-03-20T17:35:16.305Z,91.90
2019-03-20T17:37:49.246Z,87.27
2019-03-20T17:40:23.593Z,85.38
2019-03-20T17:42:56.634Z,89.90
2019-03-20T17:45:30.634Z,92.47
2019-03-20T17:48:22.459Z,86.57
2019-03-20T17:50:55.013Z,86.67
2019-03-20T17:53:27.345Z,81.45
2019-03-20T17:55:59.863Z,88.42
2019-03-20T17:58:32.275Z,86.32
2019-03-20T18:01:04.768Z,89.83
2019-03-20T18:03:37.050Z,86.75
2019-03-20T18:06:09.856Z,78.78
2019-03-20T18:08:42.226Z,84.00
2019-03-20T18:11:14.861Z,85.03
2019-03-20T18:13:47.414Z,87.70
2019-03-20T18:16:20.165Z,86.02
2019-03-20T18:18:53.100Z,82.92
2019-03-20T18:21:25.933Z,86.50
2019-03-20T18:23:58.415Z,83.72
2019-03-20T18:26:30.926Z,82.08
2019-03-20T18:29:03.398Z,91.25
2019-03-20T18:31:45.476Z,89.65
2019-03-20T18:34:09.876Z,86.78
2019-03-20T18:36:42.196Z,85.10
2019-03-20T18:39:14.742Z,81.75
2019-03-20T18:41:57.226Z,92.37
2019-03-20T18:44:22.545Z,83.35
2019-03-20T18:46:55.206Z,82.78
2019-03-20T18:49:27.942Z,80.80
2019-03-20T18:52:00.331Z,76.72
2019-03-20T18:54:33.201Z,80.30
2019-03-20T18:57:05.606Z,82.55
2019-03-20T18:59:38.289Z,78.52
2019-03-20T19:02:11.669Z,88.30
2019-03-20T19:04:44.182Z,87.00
2019-03-20T19:07:16.556Z,82.88
2019-03-20T19:09:49.591Z,85.42
2019-03-20T19:12:22.098Z,82.12
2019-03-20T19:14:54.781Z,79.92
2019-03-20T19:17:27.269Z,82.62
2019-03-20T19:19:59.731Z,85.55
2019-03-20T19:22:32.396Z,88.55
2019-03-20T19:25:06.553Z,75.10
2019-03-20T19:27:39.107Z,79.15
2019-03-20T19:30:14.260Z,85.30
2019-03-20T19:32:47.204Z,78.47
2019-03-20T19:35:19.694Z,80.15
2019-03-20T19:37:52.811Z,80.17
2019-03-20T19:40:25.497Z,85.57
2019-03-20T19:42:57.775Z,83.25
2019-03-20T19:45:30.658Z,83.95
2019-03-20T19:48:03.910Z,80.22
2019-03-20T19:50:36.521Z,76.72
2019-03-20T19:53:09.102Z,80.67
2019-03-20T19:55:41.923Z,75.70
2019-03-20T19:58:14.560Z,72.85
2019-03-20T20:00:47.033Z,74.60
2019-03-20T20:03:19.775Z,75.75
2019-03-20T20:05:52.620Z,73.05
2019-03-20T20:08:25.444Z,73.65
2019-03-20T20:10:57.936Z,79.92
2019-03-20T20:13:30.466Z,74.37
2019-03-20T20:16:02.863Z,77.90
2019-03-20T20:18:35.399Z,76.65
2019-03-20T20:21:07.713Z,79.92
2019-03-20T20:23:40.144Z,72.58
2019-03-20T20:26:12.751Z,74.85
2019-03-20T20:28:45.417Z,72.27
2019-03-20T20:31:18.272Z,76.47
2019-03-20T20:33:50.766Z,73.30
2019-03-20T20:36:23.423Z,66.53
2019-03-20T20:38:55.823Z,72.65
2019-03-20T20:41:28.560Z,71.45
2019-03-20T20:44:00.748Z,72.50
2019-03-20T20:46:33.413Z,71.92
2019-03-20T20:49:06.124Z,69.45
2019-03-20T20:51:38.834Z,73.78
2019-03-20T20:54:11.366Z,74.97
2019-03-20T20:56:44.461Z,78.37
2019-03-20T20:59:16.908Z,76.90
2019-03-20T21:01:49.698Z,76.37
2019-03-20T21:04:22.208Z,79.97
2019-03-20T21:06:54.629Z,79.22
2019-03-20T21:09:26.980Z,70.60
2019-03-20T21:11:59.294Z,77.32
2019-03-20T21:14:32.825Z,69.47
2019-03-20T21:17:06.566Z,75.05
2019-03-20T21:19:39.278Z,76.05
2019-03-20T21:22:14.633Z,73.22
2019-03-20T21:24:47.115Z,73.78
2019-03-20T21:27:22.251Z,73.37
2019-03-20T21:29:58.135Z,73.22
2019-03-20T21:32:32.957Z,68.22
2019-03-20T21:35:08.706Z,71.42
2019-03-20T21:37:43.327Z,72.85
2019-03-20T21:40:17.552Z,71.28
2019-03-20T21:42:52.761Z,67.53
2019-03-20T21:45:27.652Z,68.65
2019-03-20T21:48:00.394Z,71.30
2019-03-20T21:50:35.615Z,70.52
2019-03-20T21:53:10.578Z,71.75
2019-03-20T21:55:45.788Z,72.97
2019-03-20T21:58:20.938Z,73.45
2019-03-20T22:00:55.866Z,73.25
2019-03-20T22:03:28.526Z,72.90
2019-03-20T22:06:03.009Z,69.00
2019-03-20T22:08:35.851Z,75.70
2019-03-20T22:11:10.774Z,75.52
2019-03-20T22:13:46.219Z,77.47
2019-03-20T22:16:21.262Z,80.45
2019-03-20T22:18:55.839Z,73.05
2019-03-20T22:21:30.536Z,75.75
2019-03-20T22:24:05.848Z,78.95
2019-03-20T22:26:40.745Z,75.25
2019-03-20T22:29:15.918Z,74.32
2019-03-20T22:31:50.439Z,74.92
2019-03-20T22:34:25.175Z,73.52
2019-03-20T22:36:58.120Z,74.40
2019-03-20T22:39:32.729Z,70.52
2019-03-20T22:42:07.820Z,70.87
2019-03-20T22:44:42.369Z,70.90
2019-03-20T22:47:17.692Z,70.05
2019-03-20T22:49:52.614Z,73.47
2019-03-20T22:52:28.161Z,74.22
2019-03-20T22:55:03.083Z,70.28
2019-03-20T22:57:38.436Z,72.42
2019-03-20T23:00:12.049Z,79.32
2019-03-20T23:02:48.733Z,75.12
2019-03-20T23:05:21.289Z,72.53
2019-03-20T23:07:54.141Z,75.83
2019-03-20T23:10:26.460Z,72.53
2019-03-20T23:12:59.088Z,74.20
2019-03-20T23:15:31.522Z,77.85
2019-03-20T23:18:04.082Z,74.40
2019-03-20T23:20:36.720Z,71.30
2019-03-20T23:23:09.103Z,82.35
2019-03-20T23:25:41.735Z,78.17
2019-03-20T23:28:14.117Z,73.37
2019-03-20T23:30:46.781Z,79.27
2019-03-20T23:33:19.094Z,74.65
2019-03-20T23:35:51.707Z,77.37
2019-03-20T23:38:24.051Z,72.60
2019-03-20T23:40:56.553Z,71.82
2019-03-20T23:43:30.851Z,70.47
2019-03-20T23:46:03.493Z,80.75
2019-03-20T23:48:38.210Z,78.52
2019-03-20T23:51:13.201Z,79.45
2019-03-20T23:53:48.190Z,74.95
2019-03-20T23:56:20.885Z,73.70
2019-03-20T23:58:53.344Z,76.47
